Time;durP1;ratioP1;P1;durP2;ratioP2;P2;SDS_P1;SDS_P2;PMS_P1;PMS_P2;Temp;Humidity;BMP_temperature;BMP_pressure;BME280_temperature;BME280_humidity;BME280_pressure;Samples;Min_cycle;Max_cycle;Signal;HPM_P1;HPM_P2
2022/11/14 00:01:53;;;;;;;11.63;8.93;;;19.60;54.20;;;;;;5122605;27;20467;-81
2022/11/14 00:04:21;;;;;;;12.47;9.53;;;19.50;54.20;;;;;;5110736;27;20505;-78
2022/11/14 00:06:57;;;;;;;12.30;8.97;;;19.50;54.30;;;;;;5129173;27;20474;-80
2022/11/14 00:09:25;;;;;;;13.23;9.90;;;19.50;54.40;;;;;;5124312;27;20448;-80
2022/11/14 00:11:53;;;;;;;11.90;9.97;;;19.50;54.20;;;;;;5115625;28;20459;-79
2022/11/14 00:14:21;;;;;;;12.57;9.27;;;19.50;54.40;;;;;;5110835;28;20487;-80
2022/11/14 00:16:49;;;;;;;16.03;9.80;;;19.60;54.50;;;;;;5109085;28;20456;-80
2022/11/14 00:19:17;;;;;;;13.30;9.50;;;19.60;54.40;;;;;;5108382;28;20463;-80
2022/11/14 00:21:45;;;;;;;11.93;9.20;;;19.50;54.50;;;;;;5111893;27;20457;-80
2022/11/14 00:24:15;;;;;;;11.27;9.60;;;19.50;54.50;;;;;;5118813;27;20482;-80
2022/11/14 00:26:43;;;;;;;13.07;9.63;;;19.50;54.50;;;;;;5109790;28;20452;-80
2022/11/14 00:29:11;;;;;;;15.03;9.10;;;19.50;54.60;;;;;;5109169;28;20448;-80
2022/11/14 00:31:39;;;;;;;13.40;9.90;;;19.50;54.50;;;;;;5105504;27;20445;-81
2022/11/14 00:34:07;;;;;;;10.67;8.83;;;19.50;54.70;;;;;;5115683;28;20486;-80
2022/11/14 00:36:36;;;;;;;14.40;9.23;;;19.50;54.70;;;;;;5115489;28;20439;-79
2022/11/14 00:39:04;;;;;;;11.30;8.97;;;19.50;54.70;;;;;;5102852;28;20483;-79
2022/11/14 00:41:33;;;;;;;9.70;8.70;;;19.50;54.70;;;;;;5122661;27;20454;-80
2022/11/14 00:44:02;;;;;;;13.63;10.10;;;19.50;54.70;;;;;;5120519;27;20487;-80
2022/11/14 00:46:30;;;;;;;9.80;8.53;;;19.50;54.60;;;;;;5103814;28;20452;-80
2022/11/14 00:48:58;;;;;;;13.53;9.10;;;19.40;54.80;;;;;;5111414;28;20448;-80
2022/11/14 00:51:26;;;;;;;13.73;9.47;;;19.40;54.80;;;;;;5101369;28;20446;-80
2022/11/14 00:53:54;;;;;;;14.90;9.50;;;19.40;54.80;;;;;;5111359;28;21005;-80
2022/11/14 00:56:22;;;;;;;15.23;10.07;;;19.40;55.00;;;;;;5118758;27;20476;-79
2022/11/14 00:58:52;;;;;;;13.40;9.60;;;19.40;54.90;;;;;;5112671;28;20452;-80
2022/11/14 01:01:20;;;;;;;12.97;9.27;;;19.40;55.00;;;;;;5106204;28;20467;-81
2022/11/14 01:03:49;;;;;;;12.80;9.13;;;19.40;55.00;;;;;;5121503;27;20509;-81
2022/11/14 01:06:17;;;;;;;14.00;9.50;;;19.40;55.00;;;;;;5114040;28;20454;-80
2022/11/14 01:08:45;;;;;;;12.03;9.50;;;19.40;55.00;;;;;;5107759;27;20451;-81
2022/11/14 01:11:16;;;;;;;14.20;10.00;;;19.40;54.90;;;;;;5109428;28;20449;-80
2022/11/14 01:13:44;;;;;;;12.00;9.63;;;19.40;55.10;;;;;;5115373;27;20464;-81
2022/11/14 01:16:13;;;;;;;13.90;10.00;;;19.40;55.00;;;;;;5110579;28;20450;-80
2022/11/14 01:18:41;;;;;;;14.30;9.80;;;19.30;55.00;;;;;;5101114;28;20456;-80
2022/11/14 01:21:11;;;;;;;18.33;10.53;;;19.40;55.00;;;;;;5123230;27;20471;-81
2022/11/14 01:23:42;;;;;;;13.00;9.90;;;19.30;55.00;;;;;;5108913;28;20453;-81
2022/11/14 01:26:12;;;;;;;19.20;10.20;;;19.30;55.10;;;;;;5116207;28;20455;-80
2022/11/14 01:28:40;;;;;;;15.00;9.90;;;19.30;55.00;;;;;;5119090;28;20576;-80
2022/11/14 01:31:13;;;;;;;12.00;9.33;;;19.30;55.20;;;;;;5115430;28;20439;-82
2022/11/14 01:33:41;;;;;;;12.50;9.30;;;19.30;55.10;;;;;;5127454;28;20478;-82
2022/11/14 01:36:09;;;;;;;14.37;10.37;;;19.30;55.20;;;;;;5126325;28;20447;-82
2022/11/14 01:38:37;;;;;;;17.57;11.07;;;19.30;55.30;;;;;;5117526;28;20444;-81
2022/11/14 01:41:05;;;;;;;13.20;10.37;;;19.20;55.40;;;;;;5121002;28;20463;-81
2022/11/14 01:43:34;;;;;;;15.53;10.30;;;19.30;55.40;;;;;;5116532;28;20452;-81
2022/11/14 01:46:03;;;;;;;13.93;10.90;;;19.20;55.40;;;;;;5114638;28;20440;-81
2022/11/14 01:48:40;;;;;;;16.37;10.53;;;19.20;55.20;;;;;;5114772;28;20463;-81
2022/11/14 01:51:18;;;;;;;14.80;10.37;;;19.20;55.30;;;;;;5114400;28;20463;-82
2022/11/14 01:53:47;;;;;;;16.17;11.00;;;19.20;55.30;;;;;;5115480;28;20463;-81
2022/11/14 01:56:16;;;;;;;13.50;10.07;;;19.20;55.40;;;;;;5114807;28;20424;-81
2022/11/14 01:58:46;;;;;;;17.90;10.27;;;19.20;55.60;;;;;;5117246;28;20431;-80
2022/11/14 02:01:14;;;;;;;16.40;10.90;;;19.20;55.30;;;;;;5126396;28;20454;-81
2022/11/14 02:03:44;;;;;;;14.23;9.97;;;19.20;55.50;;;;;;5124970;27;20463;-82
2022/11/14 02:06:13;;;;;;;14.60;10.50;;;19.20;55.40;;;;;;5116002;28;20458;-81
2022/11/14 02:08:42;;;;;;;12.37;10.10;;;19.20;55.50;;;;;;5122526;28;20442;-81
2022/11/14 02:11:10;;;;;;;12.57;9.97;;;19.20;55.50;;;;;;5114988;28;20436;-81
2022/11/14 02:13:38;;;;;;;14.00;10.90;;;19.20;55.60;;;;;;5121116;28;20458;-81
2022/11/14 02:19:57;;;;;;;16.00;11.03;;;19.20;55.60;;;;;;5115460;28;20390;-82
2022/11/14 02:22:33;;;;;;;15.80;11.23;;;19.10;55.60;;;;;;5123098;28;20436;-82
2022/11/14 02:25:00;;;;;;;15.93;12.00;;;19.10;55.70;;;;;;5116421;27;20479;-81
2022/11/14 02:27:29;;;;;;;14.07;10.87;;;19.10;55.50;;;;;;5128549;27;20463;-82
2022/11/14 02:30:03;;;;;;;15.53;11.23;;;19.10;55.50;;;;;;5121892;28;20459;-81
2022/11/14 02:32:32;;;;;;;16.40;11.97;;;19.10;56.10;;;;;;5124758;28;20443;-82
2022/11/14 02:35:20;;;;;;;20.20;11.47;;;19.10;56.10;;;;;;5125192;28;20424;-82
2022/11/14 02:37:49;;;;;;;17.23;12.83;;;19.00;55.60;;;;;;5125881;28;20473;-82
2022/11/14 02:40:17;;;;;;;19.80;12.93;;;19.10;55.40;;;;;;5129992;27;20473;-81
2022/11/14 02:42:46;;;;;;;19.70;13.37;;;19.00;55.30;;;;;;5119705;28;20444;-81
2022/11/14 02:45:13;;;;;;;17.97;12.27;;;19.00;55.40;;;;;;5121577;28;20467;-82
2022/11/14 02:47:41;;;;;;;16.43;12.57;;;19.00;55.50;;;;;;5121247;28;20438;-82
2022/11/14 02:50:10;;;;;;;20.93;12.90;;;19.00;55.30;;;;;;5118894;28;20456;-81
2022/11/14 02:52:37;;;;;;;18.67;13.00;;;19.00;55.50;;;;;;5119015;28;20451;-81
2022/11/14 02:55:07;;;;;;;16.67;12.60;;;19.00;55.20;;;;;;5118441;28;20455;-81
2022/11/14 02:57:35;;;;;;;17.33;13.43;;;18.90;55.20;;;;;;5118898;27;20455;-82
2022/11/14 03:00:04;;;;;;;17.37;12.80;;;19.00;55.40;;;;;;5117012;27;20450;-81
2022/11/14 03:02:40;;;;;;;16.97;12.47;;;19.00;55.40;;;;;;5119288;28;20447;-82
2022/11/14 03:05:08;;;;;;;18.37;12.97;;;18.90;55.30;;;;;;5117657;28;20470;-82
2022/11/14 03:07:36;;;;;;;17.43;13.07;;;18.90;55.40;;;;;;5120815;28;20436;-82
2022/11/14 03:10:05;;;;;;;17.80;13.50;;;18.90;55.40;;;;;;5120690;28;20436;-82
2022/11/14 03:12:34;;;;;;;20.00;13.33;;;18.80;55.30;;;;;;5119908;28;20444;-82
2022/11/14 03:15:02;;;;;;;18.50;12.93;;;18.90;55.60;;;;;;5119786;28;20460;-82
2022/11/14 03:17:31;;;;;;;17.30;13.10;;;18.80;55.60;;;;;;5119388;28;20436;-82
2022/11/14 03:19:59;;;;;;;20.63;13.80;;;18.80;55.60;;;;;;5119708;28;20444;-82
2022/11/14 03:22:27;;;;;;;20.60;13.50;;;18.90;55.40;;;;;;5118490;28;20483;-82
2022/11/14 03:24:55;;;;;;;20.87;13.60;;;18.90;55.40;;;;;;5120491;28;20463;-81
2022/11/14 03:27:23;;;;;;;17.70;13.20;;;18.80;55.60;;;;;;5119471;28;20451;-82
2022/11/14 03:29:52;;;;;;;18.10;13.33;;;18.80;55.40;;;;;;5118994;28;20452;-82
2022/11/14 03:32:20;;;;;;;19.23;13.30;;;18.80;55.30;;;;;;5117795;28;20447;-81
2022/11/14 03:34:48;;;;;;;16.10;12.47;;;18.80;55.50;;;;;;5118145;28;20480;-82
2022/11/14 03:37:17;;;;;;;18.93;13.03;;;18.80;55.50;;;;;;5119084;28;20458;-82
2022/11/14 03:39:44;;;;;;;19.20;13.80;;;18.70;55.60;;;;;;5118920;28;20950;-82
2022/11/14 03:42:12;;;;;;;19.30;13.40;;;18.80;55.50;;;;;;5118180;28;20460;-82
2022/11/14 03:44:40;;;;;;;18.40;12.60;;;18.80;55.60;;;;;;5117769;28;20467;-82
2022/11/14 03:47:10;;;;;;;19.27;13.10;;;18.80;55.60;;;;;;5117331;28;20456;-82
2022/11/14 03:49:38;;;;;;;18.53;13.07;;;18.80;55.60;;;;;;5119072;28;20440;-82
2022/11/14 03:52:06;;;;;;;22.30;14.30;;;18.80;55.60;;;;;;5118109;28;20440;-82
2022/11/14 03:54:34;;;;;;;19.17;13.43;;;18.70;55.70;;;;;;5126230;27;20466;-82
2022/11/14 03:57:03;;;;;;;17.83;13.40;;;18.80;55.60;;;;;;5109128;27;20463;-82
2022/11/14 03:59:31;;;;;;;16.00;12.10;;;18.70;55.60;;;;;;5118526;28;20440;-82
2022/11/14 04:01:59;;;;;;;18.97;12.97;;;18.70;55.60;;;;;;5119035;28;20472;-81
2022/11/14 04:04:28;;;;;;;22.97;13.60;;;18.70;55.60;;;;;;5118551;28;20471;-82
2022/11/14 04:06:57;;;;;;;19.83;13.83;;;18.80;55.70;;;;;;5133747;27;20447;-81
2022/11/14 04:09:25;;;;;;;18.43;13.40;;;18.70;55.70;;;;;;5119279;28;20474;-82
2022/11/14 04:11:53;;;;;;;19.43;12.87;;;18.70;55.60;;;;;;5113914;27;20452;-82
2022/11/14 04:14:21;;;;;;;17.80;13.20;;;18.80;55.60;;;;;;5118752;27;20550;-82
2022/11/14 04:16:49;;;;;;;15.60;12.27;;;18.70;55.70;;;;;;5113093;28;20459;-82
2022/11/14 04:19:17;;;;;;;17.07;12.60;;;18.70;55.70;;;;;;5113592;27;20451;-82
2022/11/14 04:21:47;;;;;;;17.27;13.10;;;18.70;55.80;;;;;;5121966;27;20554;-81
2022/11/14 04:24:15;;;;;;;15.70;12.13;;;18.60;55.80;;;;;;5122636;27;20471;-82
2022/11/14 04:26:43;;;;;;;18.13;13.43;;;18.70;55.70;;;;;;5119823;27;20460;-82
2022/11/14 04:29:11;;;;;;;16.60;12.67;;;18.60;55.80;;;;;;5115055;27;20466;-82
2022/11/14 04:31:39;;;;;;;16.77;12.80;;;18.70;55.90;;;;;;5113438;27;20459;-83
2022/11/14 04:34:08;;;;;;;19.60;13.80;;;18.70;55.80;;;;;;5122666;27;20470;-83
2022/11/14 04:36:35;;;;;;;21.93;13.60;;;18.70;55.80;;;;;;5132126;27;20451;-83
2022/11/14 04:39:05;;;;;;;19.27;13.10;;;18.70;55.70;;;;;;5134409;27;20461;-82
2022/11/14 04:41:33;;;;;;;18.40;13.20;;;18.60;55.80;;;;;;5113366;27;20464;-83
2022/11/14 04:44:01;;;;;;;18.70;13.43;;;18.60;55.70;;;;;;5113484;27;20464;-83
2022/11/14 04:46:29;;;;;;;17.80;13.60;;;18.60;55.80;;;;;;5111439;27;20460;-82
2022/11/14 04:48:58;;;;;;;17.10;13.27;;;18.60;55.70;;;;;;5120761;27;20444;-82
2022/11/14 04:51:26;;;;;;;16.67;12.97;;;18.60;55.70;;;;;;5115563;28;20447;-82
2022/11/14 04:53:54;;;;;;;17.67;12.13;;;18.60;55.80;;;;;;5115570;28;20450;-82
2022/11/14 04:56:25;;;;;;;17.43;12.87;;;18.60;55.80;;;;;;5110208;28;20448;-82
2022/11/14 04:58:53;;;;;;;18.13;13.20;;;18.60;55.60;;;;;;5120630;27;20444;-83
2022/11/14 05:01:21;;;;;;;17.87;13.30;;;18.60;55.70;;;;;;5110785;27;20459;-83
2022/11/14 05:03:50;;;;;;;18.67;13.50;;;18.60;55.70;;;;;;5115164;27;20540;-83
2022/11/14 05:06:17;;;;;;;19.43;14.30;;;18.50;55.80;;;;;;5124178;27;20458;-82
2022/11/14 05:08:47;;;;;;;19.20;13.50;;;18.60;55.80;;;;;;5118124;27;20478;-82
2022/11/14 05:11:15;;;;;;;17.50;12.80;;;18.50;56.50;;;;;;5130287;27;20447;-82
2022/11/14 05:13:45;;;;;;;17.90;13.20;;;18.50;55.80;;;;;;5141720;27;20479;-82
2022/11/14 05:16:13;;;;;;;17.30;13.03;;;18.50;55.70;;;;;;5133223;28;20448;-81
2022/11/14 05:18:41;;;;;;;18.53;13.50;;;18.50;56.00;;;;;;5127570;27;20444;-82
2022/11/14 05:21:13;;;;;;;18.03;13.70;;;18.50;55.90;;;;;;5129164;28;20451;-83
2022/11/14 05:23:42;;;;;;;18.30;13.30;;;18.50;55.90;;;;;;5127112;28;20468;-82
2022/11/14 05:26:10;;;;;;;17.23;13.33;;;18.40;55.90;;;;;;5128380;28;20456;-81
2022/11/14 05:28:39;;;;;;;17.50;12.30;;;18.40;55.80;;;;;;5123433;28;20460;-81
2022/11/14 05:31:09;;;;;;;21.13;13.60;;;18.40;56.00;;;;;;5105433;28;20455;-81
2022/11/14 05:33:37;;;;;;;19.70;13.97;;;18.50;55.90;;;;;;5126550;28;20472;-82
2022/11/14 05:36:06;;;;;;;17.40;12.60;;;18.50;55.80;;;;;;5117045;28;20459;-82
2022/11/14 05:38:33;;;;;;;18.63;13.40;;;18.50;55.70;;;;;;5128988;28;20447;-81
2022/11/14 05:41:05;;;;;;;17.37;12.83;;;18.50;55.90;;;;;;5132244;28;20446;-82
2022/11/14 05:43:33;;;;;;;19.37;13.23;;;18.40;55.70;;;;;;5126614;27;20470;-82
2022/11/14 05:46:01;;;;;;;20.27;13.80;;;18.40;56.40;;;;;;5123534;28;20455;-81
2022/11/14 05:48:31;;;;;;;19.73;13.97;;;18.40;55.60;;;;;;5119096;28;20458;-81
2022/11/14 05:51:00;;;;;;;18.23;13.57;;;18.40;55.70;;;;;;5114438;28;20515;-81
2022/11/14 05:53:29;;;;;;;17.60;13.30;;;18.40;55.80;;;;;;5115314;28;20448;-81
2022/11/14 05:56:00;;;;;;;18.30;13.40;;;18.40;55.80;;;;;;5116486;27;20479;-81
2022/11/14 05:58:28;;;;;;;17.90;12.97;;;18.40;55.90;;;;;;5124368;27;20462;-82
2022/11/14 06:01:02;;;;;;;19.80;14.23;;;18.30;55.90;;;;;;5124416;27;20448;-81
2022/11/14 06:03:33;;;;;;;17.43;13.30;;;18.30;55.90;;;;;;5129630;27;20470;-81
2022/11/14 06:06:02;;;;;;;19.37;13.73;;;18.40;56.00;;;;;;5121957;27;20459;-82
2022/11/14 06:08:29;;;;;;;18.13;13.50;;;18.30;56.20;;;;;;5136600;27;20446;-81
2022/11/14 06:11:02;;;;;;;18.40;14.00;;;18.30;55.90;;;;;;5118128;27;20451;-82
2022/11/14 06:13:29;;;;;;;17.10;12.67;;;18.30;56.00;;;;;;5131490;27;20447;-82
2022/11/14 06:16:00;;;;;;;21.03;14.60;;;18.30;56.10;;;;;;5126730;27;20447;-81
2022/11/14 06:18:28;;;;;;;21.47;14.70;;;18.30;56.00;;;;;;5135418;27;20462;-81
2022/11/14 06:21:00;;;;;;;21.60;15.07;;;18.30;55.90;;;;;;5113409;27;20482;-81
2022/11/14 06:23:28;;;;;;;19.80;13.90;;;18.30;55.90;;;;;;5120086;27;20464;-81
2022/11/14 06:26:00;;;;;;;18.40;14.17;;;18.20;56.10;;;;;;5125361;27;20443;-82
2022/11/14 06:28:28;;;;;;;21.00;14.57;;;18.20;55.90;;;;;;5139746;27;20439;-81
2022/11/14 06:30:58;;;;;;;19.43;13.53;;;18.20;56.00;;;;;;5141519;27;20460;-82
2022/11/14 06:33:26;;;;;;;19.03;13.27;;;18.20;56.10;;;;;;5147164;27;20435;-81
2022/11/14 06:35:58;;;;;;;19.13;13.57;;;18.20;56.00;;;;;;5137861;27;20424;-80
2022/11/14 06:38:27;;;;;;;19.90;13.93;;;18.20;56.00;;;;;;5146619;27;20449;-81
2022/11/14 06:41:02;;;;;;;17.47;13.10;;;18.20;56.10;;;;;;5149187;27;20428;-82
2022/11/14 06:43:32;;;;;;;19.50;14.33;;;18.20;56.10;;;;;;5143282;27;20485;-80
2022/11/14 06:46:00;;;;;;;18.27;13.10;;;18.20;56.20;;;;;;5140771;27;20423;-81
2022/11/14 06:48:28;;;;;;;23.70;14.87;;;18.20;56.20;;;;;;5154187;27;20526;-81
2022/11/14 06:50:58;;;;;;;19.73;13.60;;;18.20;56.00;;;;;;5144446;27;20449;-80
2022/11/14 06:53:27;;;;;;;21.70;15.60;;;18.20;56.20;;;;;;5143569;27;20452;-81
2022/11/14 06:55:56;;;;;;;18.30;12.97;;;18.20;56.00;;;;;;5151330;27;20435;-81
2022/11/14 06:58:26;;;;;;;21.60;14.90;;;18.20;56.10;;;;;;5136001;27;20448;-81
2022/11/14 07:00:55;;;;;;;20.83;14.27;;;18.20;56.10;;;;;;5119638;28;20471;-81
2022/11/14 07:03:23;;;;;;;19.50;13.23;;;18.20;56.20;;;;;;5129323;27;20481;-81
2022/11/14 07:05:52;;;;;;;20.40;14.53;;;18.20;56.20;;;;;;5137788;27;20455;-81
2022/11/14 07:08:20;;;;;;;18.27;13.33;;;18.20;56.00;;;;;;5133810;27;20456;-81
2022/11/14 07:11:02;;;;;;;21.53;14.33;;;18.10;56.20;;;;;;5130130;27;20453;-81
2022/11/14 07:13:31;;;;;;;18.03;12.93;;;18.20;56.30;;;;;;5134582;27;20461;-81
2022/11/14 07:15:59;;;;;;;18.47;13.67;;;18.10;56.10;;;;;;5128029;27;20451;-81
2022/11/14 07:18:29;;;;;;;18.60;13.50;;;18.10;56.10;;;;;;5129356;27;20444;-81
2022/11/14 07:20:59;;;;;;;20.50;13.90;;;18.20;56.30;;;;;;5133469;27;20456;-81
2022/11/14 07:23:27;;;;;;;17.93;13.43;;;18.20;56.20;;;;;;5134164;27;20476;-80
2022/11/14 07:25:55;;;;;;;18.00;13.20;;;18.10;56.20;;;;;;5131264;27;20468;-82
2022/11/14 07:28:24;;;;;;;20.17;14.50;;;18.10;56.10;;;;;;5134386;27;20452;-81
2022/11/14 07:30:52;;;;;;;19.60;14.23;;;18.10;56.30;;;;;;5130551;27;20451;-81
2022/11/14 07:33:20;;;;;;;21.17;14.70;;;18.10;56.10;;;;;;5126958;27;20446;-81
2022/11/14 07:35:48;;;;;;;21.77;15.10;;;18.20;56.30;;;;;;5119874;27;20452;-81
2022/11/14 07:38:17;;;;;;;20.70;13.90;;;18.20;56.40;;;;;;5119347;27;20450;-81
2022/11/14 07:40:53;;;;;;;19.37;13.60;;;18.20;56.30;;;;;;5132821;27;20445;-82
2022/11/14 07:43:28;;;;;;;19.37;13.43;;;18.20;56.30;;;;;;5119990;27;20469;-82
2022/11/14 07:45:59;;;;;;;21.90;14.30;;;18.20;56.40;;;;;;5129897;27;20456;-81
2022/11/14 07:48:27;;;;;;;20.83;14.47;;;18.10;56.10;;;;;;5129387;27;20966;-81
2022/11/14 07:50:58;;;;;;;20.83;14.80;;;18.10;56.20;;;;;;5122589;27;20455;-81
2022/11/14 07:53:27;;;;;;;19.47;14.60;;;18.10;56.30;;;;;;5121427;27;20447;-82
2022/11/14 07:55:55;;;;;;;23.03;15.00;;;18.10;56.00;;;;;;5129107;27;20466;-82
2022/11/14 07:58:23;;;;;;;21.67;15.47;;;18.10;56.20;;;;;;5129503;27;20457;-81
2022/11/14 08:00:53;;;;;;;21.33;14.30;;;18.10;56.20;;;;;;5124108;27;20462;-82
2022/11/14 08:03:24;;;;;;;20.80;14.70;;;18.20;56.10;;;;;;5115622;27;20499;-82
2022/11/14 08:05:52;;;;;;;19.63;14.33;;;18.20;56.40;;;;;;5113177;27;20455;-81
2022/11/14 08:08:19;;;;;;;21.20;14.90;;;18.20;56.40;;;;;;5128027;27;20451;-81
2022/11/14 08:10:47;;;;;;;20.90;15.00;;;18.20;56.20;;;;;;5120907;28;20455;-81
2022/11/14 08:13:15;;;;;;;21.27;15.23;;;18.20;56.20;;;;;;5134049;27;20520;-81
2022/11/14 08:16:05;;;;;;;20.37;14.50;;;18.20;56.20;;;;;;5138501;27;20507;-81
2022/11/14 08:18:40;;;;;;;22.03;15.20;;;18.20;56.20;;;;;;5121792;27;20447;-81
2022/11/14 08:21:08;;;;;;;20.60;14.83;;;18.20;56.00;;;;;;5145145;27;20429;-82
2022/11/14 08:23:35;;;;;;;22.80;15.30;;;18.20;56.10;;;;;;5130856;27;20473;-81
2022/11/14 08:26:03;;;;;;;22.80;14.97;;;18.20;56.20;;;;;;5129392;27;20499;-81
2022/11/14 08:28:32;;;;;;;22.67;15.43;;;18.30;56.80;;;;;;5126974;28;20439;-81
2022/11/14 08:31:01;;;;;;;24.60;15.80;;;18.30;56.00;;;;;;5129817;27;20462;-81
2022/11/14 08:33:30;;;;;;;21.90;15.87;;;18.30;56.10;;;;;;5137357;27;20469;-81
2022/11/14 08:36:00;;;;;;;19.73;14.27;;;18.30;56.00;;;;;;5122766;27;20459;-81
2022/11/14 08:38:28;;;;;;;22.13;14.80;;;18.30;56.00;;;;;;5125353;27;20439;-81
2022/11/14 08:40:58;;;;;;;19.50;14.40;;;18.30;56.00;;;;;;5139814;27;20515;-81
2022/11/14 08:43:26;;;;;;;21.90;14.63;;;18.30;56.00;;;;;;5134896;27;20463;-81
2022/11/14 08:45:57;;;;;;;21.13;14.83;;;18.30;56.00;;;;;;5127409;27;20461;-82
2022/11/14 08:48:30;;;;;;;21.43;14.63;;;18.40;56.20;;;;;;5137192;27;20531;-82
2022/11/14 08:51:02;;;;;;;21.77;15.80;;;18.40;56.00;;;;;;5127518;27;20455;-82
2022/11/14 08:53:30;;;;;;;22.17;15.10;;;18.50;56.00;;;;;;5127471;27;20460;-82
2022/11/14 08:55:59;;;;;;;21.60;14.77;;;18.50;55.80;;;;;;5130984;27;20491;-81
2022/11/14 08:58:28;;;;;;;19.83;14.13;;;18.50;56.00;;;;;;5137087;27;20454;-81
2022/11/14 09:01:01;;;;;;;22.90;15.57;;;18.50;55.90;;;;;;5128599;27;20456;-81
2022/11/14 09:03:31;;;;;;;25.00;17.10;;;18.60;55.90;;;;;;5129230;27;20448;-82
2022/11/14 09:05:59;;;;;;;22.67;15.90;;;18.60;55.90;;;;;;5130304;27;20959;-81
2022/11/14 09:08:28;;;;;;;21.73;15.17;;;18.60;55.90;;;;;;5137065;27;20529;-82
2022/11/14 09:10:59;;;;;;;24.57;16.93;;;18.70;55.80;;;;;;5131265;27;20486;-81
2022/11/14 09:13:32;;;;;;;23.03;15.67;;;18.60;55.80;;;;;;5129081;27;20473;-82
2022/11/14 09:16:00;;;;;;;23.17;15.70;;;18.70;55.80;;;;;;5137632;27;20459;-82
2022/11/14 09:18:30;;;;;;;21.13;15.70;;;18.70;55.90;;;;;;5134930;27;20447;-81
2022/11/14 09:21:00;;;;;;;23.53;16.33;;;18.70;55.70;;;;;;5126485;27;20445;-82
2022/11/14 09:23:28;;;;;;;22.50;15.30;;;18.70;55.80;;;;;;5129216;27;20476;-82
2022/11/14 09:25:57;;;;;;;21.67;15.17;;;18.70;55.70;;;;;;5133874;28;20455;-82
2022/11/14 09:28:25;;;;;;;21.43;15.63;;;18.70;55.90;;;;;;5133671;27;20457;-82
2022/11/14 09:30:53;;;;;;;21.10;14.40;;;18.80;55.70;;;;;;5130352;28;20456;-81
2022/11/14 09:33:21;;;;;;;23.17;15.90;;;18.70;55.90;;;;;;5126481;28;20435;-81
2022/11/14 09:35:55;;;;;;;22.93;15.43;;;18.70;55.80;;;;;;5123658;28;20447;-82
2022/11/14 09:38:23;;;;;;;22.83;16.13;;;18.80;55.70;;;;;;5124557;28;20488;-81
2022/11/14 09:41:13;;;;;;;23.37;15.90;;;18.70;55.70;;;;;;5119601;28;20452;-81
2022/11/14 09:43:47;;;;;;;20.13;15.17;;;18.80;55.90;;;;;;5135580;27;20538;-83
2022/11/14 09:46:19;;;;;;;22.20;15.37;;;18.80;56.00;;;;;;5121333;28;20456;-81
2022/11/14 09:48:47;;;;;;;24.07;16.00;;;18.90;55.80;;;;;;5116182;28;20555;-81
2022/11/14 09:51:19;;;;;;;20.43;14.33;;;18.90;55.70;;;;;;5117353;28;20930;-81
2022/11/14 09:53:49;;;;;;;21.03;14.20;;;18.90;55.50;;;;;;5126125;27;20470;-81
2022/11/14 09:56:20;;;;;;;22.43;15.07;;;18.90;55.60;;;;;;5118832;28;20456;-80
2022/11/14 09:58:48;;;;;;;21.00;14.53;;;18.90;55.70;;;;;;5120354;28;20454;-80
2022/11/14 10:01:20;;;;;;;24.20;15.33;;;18.90;55.80;;;;;;5118514;28;20826;-82
2022/11/14 10:03:51;;;;;;;20.20;14.33;;;18.90;55.70;;;;;;5127843;28;20478;-81
2022/11/14 10:06:26;;;;;;;20.50;14.77;;;19.00;55.50;;;;;;5123540;28;20451;-80
2022/11/14 10:09:20;;;;;;;24.03;16.07;;;19.00;55.60;;;;;;5122945;28;20451;-81
2022/11/14 10:11:52;;;;;;;21.70;15.00;;;19.10;55.60;;;;;;5121270;28;20445;-80
2022/11/14 10:14:38;;;;;;;20.77;14.93;;;19.10;55.60;;;;;;5117778;28;20475;-81
2022/11/14 10:17:14;;;;;;;21.00;14.63;;;19.10;55.60;;;;;;5112718;28;20450;-80
2022/11/14 10:19:44;;;;;;;19.90;14.50;;;19.10;55.40;;;;;;5116656;28;20447;-80
2022/11/14 10:22:19;;;;;;;24.87;16.80;;;19.20;55.50;;;;;;5115343;28;20443;-80
2022/11/14 10:25:01;;;;;;;21.00;14.23;;;19.20;55.30;;;;;;5118004;28;20471;-80
2022/11/14 10:27:30;;;;;;;22.90;15.20;;;19.20;55.40;;;;;;5115956;28;20439;-79
2022/11/14 10:30:08;;;;;;;22.70;15.10;;;19.20;55.20;;;;;;5116414;28;20463;-80
2022/11/14 10:32:58;;;;;;;19.90;13.60;;;19.30;55.40;;;;;;5112962;28;20455;-80
2022/11/14 10:35:29;;;;;;;21.37;14.10;;;19.40;55.40;;;;;;5117220;28;20474;-80
2022/11/14 10:38:05;;;;;;;20.17;14.73;;;19.40;55.30;;;;;;5116535;28;20459;-79
2022/11/14 10:40:36;;;;;;;20.40;14.73;;;19.50;55.30;;;;;;5107954;28;20463;-79
2022/11/14 10:43:07;;;;;;;19.77;14.37;;;19.80;55.40;;;;;;5114226;28;20457;-80
2022/11/14 10:45:36;;;;;;;21.00;13.93;;;20.20;55.40;;;;;;5118023;27;20852;-79
2022/11/14 10:48:09;;;;;;;18.93;14.13;;;20.50;55.10;;;;;;5118311;27;20462;-80
2022/11/14 10:50:42;;;;;;;20.30;13.83;;;20.80;54.80;;;;;;5123349;27;20450;-79
2022/11/14 10:53:16;;;;;;;19.83;14.77;;;21.20;54.70;;;;;;5113807;27;20449;-80
2022/11/14 10:55:43;;;;;;;18.80;14.17;;;21.50;54.30;;;;;;5111440;27;20517;-80
2022/11/14 10:58:30;;;;;;;19.77;14.07;;;21.70;54.20;;;;;;5119863;27;20448;-81
2022/11/14 11:01:33;;;;;;;21.00;14.27;;;22.10;54.20;;;;;;5123941;27;20463;-80
2022/11/14 11:04:19;;;;;;;17.93;13.47;;;22.50;53.80;;;;;;5122408;28;20474;-81
2022/11/14 11:06:47;;;;;;;20.67;15.07;;;22.70;53.30;;;;;;5124072;28;20440;-81
2022/11/14 11:12:15;;;;;;;17.80;13.83;;;23.20;52.90;;;;;;5122626;28;20453;-81
2022/11/14 11:14:44;;;;;;;18.03;13.50;;;23.40;52.70;;;;;;5119349;27;20482;-82
2022/11/14 11:17:20;;;;;;;17.10;13.90;;;23.60;52.50;;;;;;5121564;27;20428;-82
2022/11/14 11:19:48;;;;;;;17.83;13.67;;;23.80;52.20;;;;;;5125944;27;20824;-82
2022/11/14 11:22:25;;;;;;;17.33;13.67;;;24.00;52.30;;;;;;5131996;27;20418;-81
2022/11/14 11:24:54;;;;;;;15.77;13.20;;;24.30;52.00;;;;;;5132637;27;20481;-82
2022/11/14 11:27:25;;;;;;;21.47;14.17;;;24.50;51.70;;;;;;5128239;27;20458;-82
2022/11/14 11:30:08;;;;;;;15.17;12.00;;;24.70;51.50;;;;;;5123831;27;20447;-83
2022/11/14 11:32:36;;;;;;;18.33;13.67;;;25.00;51.80;;;;;;5130540;27;20430;-83
2022/11/14 11:35:10;;;;;;;19.63;12.77;;;25.10;51.10;;;;;;5132916;27;20460;-80
2022/11/14 11:37:41;;;;;;;15.33;11.83;;;25.40;50.80;;;;;;5130293;27;20454;-80
2022/11/14 11:40:15;;;;;;;18.50;11.57;;;25.60;51.70;;;;;;5134558;27;20455;-83
2022/11/14 11:42:46;;;;;;;18.47;11.40;;;25.90;51.90;;;;;;5132724;27;20430;-81
2022/11/14 11:45:35;;;;;;;18.10;11.40;;;26.00;52.00;;;;;;5129582;27;20463;-80
2022/11/14 11:48:08;;;;;;;25.90;12.03;;;26.30;52.00;;;;;;5127726;27;20458;-81
2022/11/14 11:50:36;;;;;;;24.77;12.23;;;26.30;51.80;;;;;;5115526;28;20444;-78
2022/11/14 11:53:10;;;;;;;23.60;12.20;;;26.40;52.70;;;;;;5108248;28;20465;-78
2022/11/14 11:55:41;;;;;;;21.60;11.30;;;26.70;53.10;;;;;;5108527;28;20474;-77
2022/11/14 11:58:14;;;;;;;21.73;12.03;;;26.90;53.50;;;;;;5117667;27;20447;-77
2022/11/14 12:00:42;;;;;;;28.17;12.50;;;27.10;53.00;;;;;;5118056;27;20430;-77
2022/11/14 12:03:11;;;;;;;22.40;12.33;;;27.20;52.40;;;;;;5119411;27;20441;-77
2022/11/14 12:05:46;;;;;;;17.13;12.10;;;27.30;51.60;;;;;;5122160;27;20450;-79
2022/11/14 12:08:17;;;;;;;27.37;12.07;;;27.40;51.10;;;;;;5129654;27;20430;-79
2022/11/14 12:10:49;;;;;;;20.50;12.17;;;27.50;50.70;;;;;;5130309;27;20444;-78
2022/11/14 12:13:43;;;;;;;19.17;12.30;;;27.60;49.80;;;;;;5126643;27;20437;-78
2022/11/14 12:16:18;;;;;;;19.23;11.80;;;27.60;49.60;;;;;;5125004;27;20418;-79
2022/11/14 12:19:31;;;;;;;18.90;12.20;;;27.50;50.00;;;;;;5102823;28;20801;-77
2022/11/14 12:22:34;;;;;;;20.50;11.70;;;27.60;49.90;;;;;;5054039;28;20462;-78
2022/11/14 12:25:27;;;;;;;18.60;12.00;;;27.60;49.20;;;;;;5075162;27;20449;-80
2022/11/14 12:28:03;;;;;;;21.00;11.97;;;27.70;48.90;;;;;;5130717;27;20429;-79
2022/11/14 12:30:31;;;;;;;17.93;11.57;;;27.70;48.70;;;;;;5122960;27;20437;-79
2022/11/14 12:33:00;;;;;;;15.83;11.43;;;27.70;48.30;;;;;;5115259;27;20456;-79
2022/11/14 12:35:29;;;;;;;18.47;12.63;;;27.80;48.40;;;;;;5117268;28;20467;-81
2022/11/14 12:37:57;;;;;;;19.10;11.63;;;27.80;48.10;;;;;;5120659;27;20422;-79
2022/11/14 12:40:27;;;;;;;20.17;12.73;;;27.70;48.30;;;;;;5111341;28;20423;-78
2022/11/14 12:42:56;;;;;;;22.17;12.00;;;27.70;48.00;;;;;;5113961;28;20440;-77
2022/11/14 12:46:06;;;;;;;14.37;11.13;;;27.70;48.10;;;;;;5116459;28;20846;-79
2022/11/14 12:48:36;;;;;;;24.67;12.60;;;27.80;47.80;;;;;;5121500;27;20451;-78
2022/11/14 12:51:06;;;;;;;24.77;12.20;;;27.80;48.80;;;;;;5113749;27;20452;-77
2022/11/14 12:53:42;;;;;;;31.67;12.20;;;27.80;48.60;;;;;;5114590;28;20422;-77